Ormond — D5KI5 — position and weather

sailwx.info

Track history (hours):
 
Tides and Currents Weather Stations Pressure Air Temp Water Temp Dewpoint Dewpoint Depression Visibility Wind Speed Wind Dir Waves Ship Positions

Ormond

Last reported at 2017-Aug-22 13:03 UTC. Time now 2017-Sep-22 10:03 UTC.
Position N 39°43' W 013°26'.
Warning: this ship's position is 30 days out of date.

Length 292 m; draft 9.5 m.

Type: Cargo ship. MMSI: 636017319.

Date/timePositionNaut miles runAvg speedWind from/ knotsBaromVisibWave heightAir tempDewpointWater temp
2017-Aug-22 13:03N 39°43' W 013°26'112.3
2017-Aug-22 12:59N 39°43' W 013°25'612.3
2017-Aug-22 12:30N 39°40' W 013°18'612.3
2017-Aug-22 12:00N 39°37' W 013°11'612.0
2017-Aug-22 11:30N 39°34' W 013°04'612.1
2017-Aug-22 11:00N 39°31' W 012°57'611.9
2017-Aug-22 10:30N 39°29' W 012°51'612.1
2017-Aug-22 10:00N 39°26' W 012°43'612.3
2017-Aug-22 09:30N 39°23' W 012°36'612.4
2017-Aug-22 09:00N 39°21' W 012°29'612.2
2017-Aug-22 08:30N 39°18' W 012°22'612.0
2017-Aug-22 08:00N 39°15' W 012°15'612.2
2017-Aug-22 07:30N 39°12' W 012°08'612.4
2017-Aug-22 07:00N 39°10' W 012°01'612.3
2017-Aug-22 06:30N 39°07' W 011°54'612.4
2017-Aug-22 06:00N 39°04' W 011°47'612.2
2017-Aug-22 05:30N 39°01' W 011°40'712.2
2017-Aug-22 04:58N 38°58' W 011°32'612.2
2017-Aug-22 04:30N 38°56' W 011°26'612.2
2017-Aug-22 04:00N 38°53' W 011°19'612.2
2017-Aug-22 03:30N 38°51' W 011°11'612.0
2017-Aug-22 03:00N 38°48' W 011°04'611.8
2017-Aug-22 02:30N 38°46' W 010°58'611.9
2017-Aug-22 02:00N 38°43' W 010°51'612.3
2017-Aug-22 01:30N 38°40' W 010°44'612.6
2017-Aug-22 01:00N 38°37' W 010°37'612.4
2017-Aug-22 00:30N 38°35' W 010°30'612.4
2017-Aug-22 00:00N 38°32' W 010°23'612.4
2017-Aug-21 23:30N 38°29' W 010°15'612.2
2017-Aug-21 23:00N 38°26' W 010°08'612.2
2017-Aug-21 22:30N 38°24' W 010°01'611.8
2017-Aug-21 22:00N 38°21' W 009°55'611.4
2017-Aug-21 21:30N 38°19' W 009°48'611.2
2017-Aug-21 21:00N 38°16' W 009°42'510.9
2017-Aug-21 20:31N 38°14' W 009°35'510.9
2017-Aug-21 20:00N 38°11' W 009°30'510.5
2017-Aug-21 19:30N 38°08' W 009°24'611.3
2017-Aug-21 19:00N 38°05' W 009°18'611.6
2017-Aug-21 18:30N 38°02' W 009°12'612.1
2017-Aug-21 18:00N 37°59' W 009°05'611.5
2017-Aug-21 17:30N 37°58' W 008°58'4 8.2
2017-Aug-21 17:00N 37°55' W 008°54'2 4.5
2017-Aug-21 16:30N 37°56' W 008°51'0 0.4
2017-Aug-21 15:59N 37°56' W 008°51'0 0.0
2017-Aug-21 15:26N 37°56' W 008°51'0 0.0
2017-Aug-21 14:59N 37°56' W 008°51'0 0.0
2017-Aug-21 14:29N 37°56' W 008°51'0 0.0
2017-Aug-21 13:59N 37°56' W 008°51'0 0.0
2017-Aug-21 13:29N 37°56' W 008°51'0 0.0
2017-Aug-21 12:59N 37°56' W 008°51'0 0.0
2017-Aug-21 12:29N 37°56' W 008°51'0 0.0
2017-Aug-21 11:59N 37°56' W 008°51'0 0.0
2017-Aug-21 11:29N 37°56' W 008°51'0 0.0
2017-Aug-21 10:59N 37°56' W 008°51'0 0.0
2017-Aug-21 10:29N 37°56' W 008°51'0 0.0
2017-Aug-21 09:59N 37°56' W 008°51'0 0.0
2017-Aug-21 09:29N 37°56' W 008°51'0 0.0
2017-Aug-21 08:59N 37°56' W 008°51'0 0.0
2017-Aug-21 08:29N 37°56' W 008°51'0 0.0
2017-Aug-21 07:59N 37°56' W 008°51'0 0.0
2017-Aug-21 07:29N 37°56' W 008°51'0 0.0
2017-Aug-21 06:59N 37°56' W 008°51'0 0.0
2017-Aug-21 06:26N 37°56' W 008°51'0 0.0
2017-Aug-21 05:59N 37°56' W 008°51'0 0.0
2017-Aug-21 05:29N 37°56' W 008°51'0 0.0
2017-Aug-21 04:59N 37°56' W 008°51'0 0.0
2017-Aug-21 04:29N 37°56' W 008°51'0 0.0
2017-Aug-21 03:59N 37°56' W 008°51'0 0.0
2017-Aug-21 03:28N 37°56' W 008°51'0 0.0
2017-Aug-21 02:59N 37°56' W 008°51'0 0.0
2017-Aug-21 02:29N 37°56' W 008°51'0 0.0
2017-Aug-21 01:59N 37°56' W 008°51'0 0.0
2017-Aug-21 01:29N 37°56' W 008°51'0 0.0
2017-Aug-21 00:59N 37°56' W 008°51'0 0.0
2017-Aug-21 00:29N 37°56' W 008°51'0 0.0
2017-Aug-20 23:59N 37°56' W 008°51'0 0.0
2017-Aug-20 23:29N 37°56' W 008°51'0 0.0
2017-Aug-20 22:56N 37°56' W 008°51'0 0.0
2017-Aug-20 22:29N 37°56' W 008°51'0 0.0
2017-Aug-20 21:59N 37°56' W 008°51'0 0.0
2017-Aug-20 21:29N 37°56' W 008°51'0 0.0
2017-Aug-20 20:59N 37°56' W 008°51'0 0.0
2017-Aug-20 20:29N 37°56' W 008°51'0 0.0
2017-Aug-20 19:58N 37°56' W 008°51'0 0.0
2017-Aug-20 19:29N 37°56' W 008°51'0 0.0
2017-Aug-20 18:59N 37°56' W 008°51'0 0.0
2017-Aug-20 18:26N 37°56' W 008°51'0 0.0
2017-Aug-20 17:55N 37°56' W 008°51'0 0.0
2017-Aug-20 17:28N 37°56' W 008°51'0 0.0
2017-Aug-20 16:56N 37°56' W 008°51'0 0.0
2017-Aug-20 16:28N 37°56' W 008°51'0 0.0
2017-Aug-20 15:55N 37°56' W 008°51'0 0.0
2017-Aug-20 15:28N 37°56' W 008°51'0 0.0
2017-Aug-20 14:59N 37°56' W 008°51'0 0.0
2017-Aug-20 14:29N 37°56' W 008°51'0 0.0
2017-Aug-20 13:58N 37°56' W 008°51'0 0.0
2017-Aug-20 13:28N 37°56' W 008°51'0 0.0
2017-Aug-20 12:58N 37°56' W 008°51'0 0.0
2017-Aug-20 12:29N 37°56' W 008°51'0 0.0
2017-Aug-20 11:59N 37°56' W 008°51'0 0.0
2017-Aug-20 11:28N 37°56' W 008°51'0 0.0
2017-Aug-20 10:58N 37°56' W 008°51'0 0.0
2017-Aug-20 10:28N 37°56' W 008°51'0 0.0
2017-Aug-20 09:58N 37°56' W 008°51'0 0.0
2017-Aug-20 09:29N 37°56' W 008°51'0 0.0
2017-Aug-20 08:58N 37°56' W 008°51'0 0.0
2017-Aug-20 08:29N 37°56' W 008°51'0 0.0
2017-Aug-20 07:55N 37°56' W 008°51'0 0.0
2017-Aug-20 07:29N 37°56' W 008°51'0 0.0
2017-Aug-20 06:58N 37°56' W 008°51'0 0.0
2017-Aug-20 06:25N 37°56' W 008°51'0 0.0
2017-Aug-20 05:58N 37°56' W 008°51'0 0.0
2017-Aug-20 05:28N 37°56' W 008°51'0 0.0
2017-Aug-20 04:58N 37°56' W 008°51'0 0.0
2017-Aug-20 04:28N 37°56' W 008°51'0 0.0
2017-Aug-20 03:58N 37°56' W 008°51'0 0.0
2017-Aug-20 03:28N 37°56' W 008°51'0 0.0
2017-Aug-20 02:58N 37°56' W 008°51'0 0.0
2017-Aug-20 02:28N 37°56' W 008°51'0 0.0
2017-Aug-20 01:58N 37°56' W 008°51'0 0.0
2017-Aug-20 01:28N 37°56' W 008°51'0 0.0
2017-Aug-20 00:58N 37°56' W 008°51'0 0.0
2017-Aug-20 00:28N 37°56' W 008°51'0 0.0
2017-Aug-19 23:58N 37°56' W 008°51'0 0.0
2017-Aug-19 23:28N 37°56' W 008°51'0 0.0
2017-Aug-19 22:58N 37°56' W 008°51'0 0.0
2017-Aug-19 22:28N 37°56' W 008°51'0 0.0
2017-Aug-19 21:58N 37°56' W 008°51'0 0.0
2017-Aug-19 21:28N 37°56' W 008°51'0 0.0
2017-Aug-19 20:58N 37°56' W 008°51'0 0.0
2017-Aug-19 20:28N 37°56' W 008°51'0 0.0
2017-Aug-19 19:58N 37°56' W 008°51'0 0.0
2017-Aug-19 19:28N 37°56' W 008°51'0 0.0
2017-Aug-19 18:58N 37°56' W 008°51'0 0.0
2017-Aug-19 18:28N 37°56' W 008°51'0 0.0
2017-Aug-19 17:58N 37°56' W 008°51'0 0.0
2017-Aug-19 17:28N 37°56' W 008°51'0 0.0
2017-Aug-19 16:55N 37°56' W 008°51'0 0.0
2017-Aug-19 16:28N 37°56' W 008°51'0 0.0
2017-Aug-19 15:58N 37°56' W 008°51'0 0.0
2017-Aug-19 15:28N 37°56' W 008°51'0 0.0
2017-Aug-19 14:58N 37°56' W 008°51'0 0.0
2017-Aug-19 13:58N 37°56' W 008°51'0 0.0
2017-Aug-19 13:28N 37°56' W 008°51'0 0.0
2017-Aug-19 12:58N 37°56' W 008°51'0 0.0
2017-Aug-19 12:28N 37°56' W 008°51'0 0.0
2017-Aug-19 11:58N 37°56' W 008°51'0 0.0
2017-Aug-19 11:28N 37°56' W 008°51'0 0.0
2017-Aug-19 10:58N 37°56' W 008°51'0 0.0
2017-Aug-19 10:28N 37°56' W 008°51'0 0.0
2017-Aug-19 09:58N 37°56' W 008°51'0 0.0
2017-Aug-19 09:28N 37°56' W 008°51'0 0.0
2017-Aug-19 08:58N 37°56' W 008°51'0 0.0
2017-Aug-19 08:28N 37°56' W 008°51'0 0.0
2017-Aug-19 07:58N 37°56' W 008°51'0 0.0
2017-Aug-19 07:28N 37°56' W 008°51'0 0.0
2017-Aug-19 06:58N 37°56' W 008°51'0 0.0
2017-Aug-19 06:28N 37°56' W 008°51'0 0.0
2017-Aug-19 05:58N 37°56' W 008°51'0 0.0
2017-Aug-19 05:25N 37°56' W 008°51'0 0.0
2017-Aug-19 04:58N 37°56' W 008°51'0 0.0
2017-Aug-19 04:28N 37°56' W 008°51'0 0.0
2017-Aug-19 03:58N 37°56' W 008°51'0 0.0
2017-Aug-19 03:28N 37°56' W 008°51'0 0.0
2017-Aug-19 02:58N 37°56' W 008°51'0 0.0
2017-Aug-19 02:28N 37°56' W 008°51'0 0.0
2017-Aug-19 01:58N 37°56' W 008°51'0 0.0
2017-Aug-19 01:28N 37°56' W 008°51'0 0.0
2017-Aug-19 00:58N 37°56' W 008°51'0 0.0
2017-Aug-19 00:28N 37°56' W 008°51'0 0.0
2017-Aug-18 23:58N 37°56' W 008°51'0 0.0
2017-Aug-18 23:28N 37°56' W 008°51'0 0.0
2017-Aug-18 22:58N 37°56' W 008°51'0 0.0
2017-Aug-18 22:22N 37°56' W 008°51'0 0.0
2017-Aug-18 21:58N 37°56' W 008°51'0 0.0
2017-Aug-18 21:28N 37°56' W 008°51'0 0.0
2017-Aug-18 20:58N 37°56' W 008°51'0 0.0
2017-Aug-18 20:28N 37°56' W 008°51'0 0.0
2017-Aug-18 19:58N 37°56' W 008°51'0 0.0
2017-Aug-18 19:28N 37°56' W 008°51'0 0.0
2017-Aug-18 18:58N 37°56' W 008°51'0 0.0
2017-Aug-18 18:28N 37°56' W 008°51'0 0.0
2017-Aug-18 17:58N 37°56' W 008°51'0 0.0
2017-Aug-18 17:28N 37°56' W 008°51'0 0.0
2017-Aug-18 16:58N 37°56' W 008°51'0 0.0
2017-Aug-18 16:28N 37°56' W 008°51'0 0.0
2017-Aug-18 16:00N 37°56' W 008°51'1 1.1
2017-Aug-18 15:30N 37°56' W 008°52'1 2.1
2017-Aug-18 15:01N 37°56' W 008°53'3 3.1
2017-Aug-18 14:00N 37°53' W 008°53'0 0.1
2017-Aug-18 13:28N 37°53' W 008°53'0 0.0
2017-Aug-18 12:58N 37°53' W 008°53'0 0.1
2017-Aug-18 12:28N 37°53' W 008°53'0 0.1
2017-Aug-18 11:58N 37°53' W 008°53'0 0.0
2017-Aug-18 11:28N 37°53' W 008°53'0 0.1
2017-Aug-18 10:58N 37°53' W 008°53'0 0.0
2017-Aug-18 10:28N 37°53' W 008°53'0 0.0
2017-Aug-18 09:58N 37°53' W 008°53'0 0.0
2017-Aug-18 09:28N 37°53' W 008°53'0 0.0
2017-Aug-18 08:58N 37°53' W 008°53'0 0.0
2017-Aug-18 08:28N 37°53' W 008°53'0 0.0
2017-Aug-18 07:58N 37°53' W 008°53'0 0.0
2017-Aug-18 07:28N 37°53' W 008°53'0 0.0
2017-Aug-18 06:58N 37°53' W 008°53'0 0.0
2017-Aug-18 06:28N 37°53' W 008°53'0 0.0
2017-Aug-18 05:58N 37°53' W 008°53'0 0.2
2017-Aug-18 05:28N 37°53' W 008°53'0 0.1
2017-Aug-18 04:58N 37°53' W 008°53'0 0.0
2017-Aug-18 04:28N 37°53' W 008°53'0 0.0
2017-Aug-18 03:58N 37°53' W 008°53'0 0.0
2017-Aug-18 03:25N 37°53' W 008°53'0 0.0
2017-Aug-18 02:58N 37°53' W 008°53'0 0.1
2017-Aug-18 02:28N 37°53' W 008°53'0 0.0
2017-Aug-18 01:58N 37°53' W 008°53'0 0.0
2017-Aug-18 01:28N 37°53' W 008°53'0 0.0
2017-Aug-18 00:58N 37°53' W 008°53'0 0.0
2017-Aug-18 00:28N 37°53' W 008°53'0 0.0
2017-Aug-17 23:58N 37°53' W 008°53'0 0.1
2017-Aug-17 23:28N 37°53' W 008°53'0 0.1
2017-Aug-17 22:58N 37°53' W 008°53'0 0.0
2017-Aug-17 22:28N 37°53' W 008°53'0 0.0
2017-Aug-17 21:58N 37°53' W 008°53'0 0.0
2017-Aug-17 21:28N 37°53' W 008°53'0 0.1
2017-Aug-17 20:58N 37°53' W 008°53'0 0.0
2017-Aug-17 20:28N 37°53' W 008°53'0 0.0
2017-Aug-17 19:55N 37°53' W 008°53'0 0.0
2017-Aug-17 19:28N 37°53' W 008°53'0 0.0
2017-Aug-17 18:58N 37°53' W 008°53'0 0.0
2017-Aug-17 18:28N 37°53' W 008°53'0 0.0
2017-Aug-17 17:58N 37°53' W 008°53'0 0.0
2017-Aug-17 17:28N 37°53' W 008°53'0 0.0
2017-Aug-17 16:58N 37°53' W 008°53'0 0.0
2017-Aug-17 16:28N 37°53' W 008°53'0 0.0
2017-Aug-17 15:58N 37°53' W 008°53'0 0.0
2017-Aug-17 15:28N 37°53' W 008°53'0 0.0
2017-Aug-17 14:58N 37°53' W 008°53'0 0.0
2017-Aug-17 14:28N 37°53' W 008°53'0 0.0
2017-Aug-17 13:58N 37°53' W 008°53'0 0.0
2017-Aug-17 13:28N 37°53' W 008°53'0 0.0
2017-Aug-17 12:58N 37°53' W 008°53'0 0.0
2017-Aug-17 12:28N 37°53' W 008°53'0 0.0
2017-Aug-17 11:58N 37°53' W 008°53'0 0.1
2017-Aug-17 11:28N 37°53' W 008°53'0 0.1
2017-Aug-17 10:58N 37°53' W 008°53'0 0.1
2017-Aug-17 10:28N 37°53' W 008°53'0 0.1
2017-Aug-17 09:58N 37°53' W 008°53'0 0.0
2017-Aug-17 09:28N 37°53' W 008°53'0 0.2
2017-Aug-17 08:58N 37°53' W 008°53'0 0.1
2017-Aug-17 08:28N 37°53' W 008°53'0 0.0
2017-Aug-17 07:58N 37°53' W 008°53'0 0.1
2017-Aug-17 07:28N 37°53' W 008°53'0 0.1
2017-Aug-17 06:58N 37°53' W 008°53'0 0.1
2017-Aug-17 06:28N 37°53' W 008°53'0 0.1
2017-Aug-17 05:58N 37°53' W 008°53'0 0.1
2017-Aug-17 05:28N 37°53' W 008°53'0 0.0
2017-Aug-17 04:58N 37°53' W 008°53'0 0.0
2017-Aug-17 04:28N 37°53' W 008°53'0 0.0
2017-Aug-17 03:58N 37°53' W 008°53'0 0.0
2017-Aug-17 03:28N 37°53' W 008°53'0 0.0
2017-Aug-17 02:58N 37°53' W 008°53'0 0.1
2017-Aug-17 02:28N 37°53' W 008°53'0 0.0
2017-Aug-17 01:58N 37°53' W 008°53'0 0.1
2017-Aug-17 01:28N 37°53' W 008°53'0 0.1
2017-Aug-17 00:58N 37°53' W 008°53'0 0.1
2017-Aug-17 00:28N 37°53' W 008°53'0 0.0
2017-Aug-16 23:58N 37°53' W 008°53'0 0.0
2017-Aug-16 23:28N 37°53' W 008°53'0 0.0
2017-Aug-16 22:58N 37°53' W 008°53'0 0.0
2017-Aug-16 22:28N 37°53' W 008°53'0 0.0
2017-Aug-16 21:58N 37°53' W 008°53'0 0.0
2017-Aug-16 21:28N 37°53' W 008°53'0 0.0
2017-Aug-16 20:58N 37°53' W 008°53'0 0.0
2017-Aug-16 20:28N 37°53' W 008°53'0 0.0
2017-Aug-16 19:58N 37°53' W 008°53'0 0.0
2017-Aug-16 19:25N 37°53' W 008°53'0 0.1
2017-Aug-16 18:58N 37°53' W 008°53'0 0.0
2017-Aug-16 18:28N 37°53' W 008°53'0 0.1
2017-Aug-16 17:58N 37°53' W 008°53'0 0.0
2017-Aug-16 17:28N 37°53' W 008°53'0 0.0
2017-Aug-16 16:58N 37°53' W 008°53'0 0.0
2017-Aug-16 16:28N 37°53' W 008°53'0 0.0
2017-Aug-16 15:58N 37°53' W 008°53'0 0.0
2017-Aug-16 15:28N 37°53' W 008°53'0 0.0
2017-Aug-16 14:58N 37°53' W 008°53'0 0.0
2017-Aug-16 14:28N 37°53' W 008°53'0 0.0
2017-Aug-16 13:58N 37°53' W 008°53'0 0.0
2017-Aug-16 13:28N 37°53' W 008°53'0 0.0
2017-Aug-16 12:58N 37°53' W 008°53'0 0.0
2017-Aug-16 12:28N 37°53' W 008°53'0 0.0
2017-Aug-16 11:58N 37°53' W 008°53'0 0.0
2017-Aug-16 11:28N 37°53' W 008°53'0 0.1
2017-Aug-16 10:58N 37°53' W 008°53'0 0.1
2017-Aug-16 10:28N 37°53' W 008°53'0 0.0
2017-Aug-16 09:58N 37°53' W 008°53'0 0.0
2017-Aug-16 09:28N 37°53' W 008°53'0 0.0
2017-Aug-16 08:58N 37°53' W 008°53'0 0.1
2017-Aug-16 08:25N 37°53' W 008°53'0 0.1
2017-Aug-16 07:58N 37°53' W 008°53'0 0.1
2017-Aug-16 07:28N 37°53' W 008°53'0 0.1
2017-Aug-16 06:58N 37°53' W 008°53'0 0.1
2017-Aug-16 06:28N 37°53' W 008°53'0 0.3
2017-Aug-16 05:58N 37°53' W 008°53'0 0.1
2017-Aug-16 05:28N 37°53' W 008°53'0 0.0
2017-Aug-16 04:58N 37°53' W 008°53'0 0.0
2017-Aug-16 04:28N 37°53' W 008°53'0 0.0
2017-Aug-16 03:58N 37°53' W 008°53'0 0.0
2017-Aug-16 03:28N 37°53' W 008°53'0 0.0
2017-Aug-16 02:58N 37°53' W 008°53'0 0.0
2017-Aug-16 02:28N 37°53' W 008°53'0 0.0
2017-Aug-16 01:58N 37°53' W 008°53'0 0.0
2017-Aug-16 01:28N 37°53' W 008°53'0 0.0
2017-Aug-16 00:58N 37°53' W 008°53'0 0.0
2017-Aug-16 00:28N 37°53' W 008°53'0 0.0
2017-Aug-15 23:58N 37°53' W 008°53'0 0.0
2017-Aug-15 23:28N 37°53' W 008°53'0 0.0
2017-Aug-15 22:58N 37°53' W 008°53'0 0.0
2017-Aug-15 22:28N 37°53' W 008°53'0 0.0
2017-Aug-15 21:58N 37°53' W 008°53'0 0.0
2017-Aug-15 21:28N 37°53' W 008°53'0 0.0
2017-Aug-15 20:58N 37°53' W 008°53'0 0.0
2017-Aug-15 20:28N 37°53' W 008°53'0 0.0
2017-Aug-15 19:55N 37°53' W 008°53'0 0.0
2017-Aug-15 19:28N 37°53' W 008°53'0 0.0
2017-Aug-15 18:58N 37°53' W 008°53'0 0.0
2017-Aug-15 18:28N 37°53' W 008°53'0 0.1
2017-Aug-15 17:58N 37°53' W 008°53'0 0.0
2017-Aug-15 17:28N 37°53' W 008°53'0 0.1
2017-Aug-15 16:58N 37°53' W 008°53'0 0.1
2017-Aug-15 16:28N 37°53' W 008°53'0 0.1
2017-Aug-15 15:58N 37°53' W 008°53'0 0.0
2017-Aug-15 15:28N 37°53' W 008°53'0 0.0
2017-Aug-15 14:58N 37°53' W 008°53'0 0.0
2017-Aug-15 14:22N 37°53' W 008°53'0 0.0
2017-Aug-15 13:58N 37°53' W 008°53'0 0.0
2017-Aug-15 13:28N 37°53' W 008°53'0 0.0
2017-Aug-15 12:58N 37°53' W 008°53'0 0.0
2017-Aug-15 12:28N 37°53' W 008°53'0 0.0
2017-Aug-15 11:58N 37°53' W 008°53'0 0.0
2017-Aug-15 11:28N 37°53' W 008°53'0 0.0
2017-Aug-15 10:58N 37°53' W 008°53'0 0.0
2017-Aug-15 10:28N 37°53' W 008°53'0 0.0
2017-Aug-15 09:58N 37°53' W 008°53'0 0.0
2017-Aug-15 09:28N 37°53' W 008°53'0 0.0
2017-Aug-15 08:58N 37°53' W 008°53'0 0.0
2017-Aug-15 08:28N 37°53' W 008°53'0 0.0
2017-Aug-15 07:58N 37°53' W 008°53'0 0.0
2017-Aug-15 07:28N 37°53' W 008°53'0 0.0
2017-Aug-15 06:58N 37°53' W 008°53'0 0.0
2017-Aug-15 06:25N 37°53' W 008°53'0 0.0
2017-Aug-15 05:58N 37°53' W 008°53'0 0.0
2017-Aug-15 05:28N 37°53' W 008°53'0 0.0
2017-Aug-15 04:58N 37°53' W 008°53'0 0.0
2017-Aug-15 04:28N 37°53' W 008°53'0 0.0
2017-Aug-15 03:58N 37°53' W 008°53'0 0.2
2017-Aug-15 03:28N 37°53' W 008°53'0 0.1
2017-Aug-15 02:58N 37°53' W 008°53'0 0.1
2017-Aug-15 02:28N 37°53' W 008°53'0 0.1
2017-Aug-15 01:58N 37°53' W 008°53'0 0.0
2017-Aug-15 01:28N 37°53' W 008°53'0 0.0
2017-Aug-15 00:58N 37°53' W 008°53'0 0.0
2017-Aug-15 00:28N 37°53' W 008°53'0 0.0
2017-Aug-14 23:58N 37°53' W 008°53'0 0.0
2017-Aug-14 23:28N 37°53' W 008°53'0 0.0
2017-Aug-14 22:58N 37°53' W 008°53'0 0.0
2017-Aug-14 22:28N 37°53' W 008°53'0 0.0
2017-Aug-14 21:58N 37°53' W 008°53'0 0.0
2017-Aug-14 21:28N 37°53' W 008°53'0 0.0
2017-Aug-14 20:55N 37°53' W 008°53'0 0.0
2017-Aug-14 20:28N 37°53' W 008°53'0 0.0
2017-Aug-14 19:58N 37°53' W 008°53'0 0.0
2017-Aug-14 19:28N 37°53' W 008°53'0 0.0
2017-Aug-14 18:58N 37°53' W 008°53'0 0.1
2017-Aug-14 18:28N 37°53' W 008°53'0 0.4
2017-Aug-14 18:00N 37°53' W 008°53'0 0.5
2017-Aug-14 17:28N 37°52' W 008°53'0 0.8
2017-Aug-14 17:00N 37°53' W 008°53'0 0.3
2017-Aug-14 16:30N 37°53' W 008°53'1 2.5
2017-Aug-14 16:00N 37°52' W 008°54'4 7.9
2017-Aug-14 15:30N 37°49' W 008°58'510.3
2017-Aug-14 15:00N 37°48' W 009°04'611.9
2017-Aug-14 14:30N 37°50' W 009°12'611.7
2017-Aug-14 14:00N 37°50' W 009°19'611.8
2017-Aug-14 13:30N 37°50' W 009°26'611.6
2017-Aug-14 13:00N 37°50' W 009°34'611.3
2017-Aug-14 12:30N 37°49' W 009°41'511.0
2017-Aug-14 12:00N 37°49' W 009°48'611.4
2017-Aug-14 11:30N 37°49' W 009°55'611.3
2017-Aug-14 11:00N 37°49' W 010°02'611.4
2017-Aug-14 10:30N 37°48' W 010°09'611.6
2017-Aug-14 10:00N 37°48' W 010°17'611.4
2017-Aug-14 09:30N 37°47' W 010°24'611.3
2017-Aug-14 09:00N 37°47' W 010°31'611.2
2017-Aug-14 08:30N 37°46' W 010°38'611.5
2017-Aug-14 08:00N 37°45' W 010°45'611.2
2017-Aug-14 07:30N 37°45' W 010°52'611.4
2017-Aug-14 07:00N 37°44' W 010°59'611.3
2017-Aug-14 06:30N 37°44' W 011°07'611.1
2017-Aug-14 06:00N 37°44' W 011°14'510.7
2017-Aug-14 05:30N 37°43' W 011°20'510.6
2017-Aug-14 05:00N 37°43' W 011°27'510.8
2017-Aug-14 04:30N 37°43' W 011°34'510.8
2017-Aug-14 04:00N 37°42' W 011°41'611.2
2017-Aug-14 03:30N 37°42' W 011°48'611.2
2017-Aug-14 03:00N 37°41' W 011°55'611.0
2017-Aug-14 02:30N 37°41' W 012°02'611.0
2017-Aug-14 02:00N 37°40' W 012°09'510.9
2017-Aug-14 01:30N 37°40' W 012°15'510.8
2017-Aug-14 01:00N 37°39' W 012°22'510.8
2017-Aug-14 00:30N 37°39' W 012°29'611.0
2017-Aug-14 00:00N 37°38' W 012°36'611.2
2017-Aug-13 23:30N 37°37' W 012°43'611.0
2017-Aug-13 23:00N 37°37' W 012°50'611.1
2017-Aug-13 22:30N 37°36' W 012°57'611.1
2017-Aug-13 22:00N 37°35' W 013°04'510.9
2017-Aug-13 21:30N 37°35' W 013°10'510.9
2017-Aug-13 21:00N 37°34' W 013°17'511.0
2017-Aug-13 20:30N 37°33' W 013°24'511.0
2017-Aug-13 20:00N 37°33' W 013°31'611.0
2017-Aug-13 19:30N 37°33' W 013°38'510.8
2017-Aug-13 19:00N 37°32' W 013°45'510.8
2017-Aug-13 18:30N 37°32' W 013°52'510.8
2017-Aug-13 18:00N 37°31' W 013°58'510.8
2017-Aug-13 17:30N 37°31' W 014°05'610.9
2017-Aug-13 16:56N 37°30' W 014°13'710.6
2017-Aug-13 16:18N 37°29' W 014°21'310.9
2017-Aug-13 16:00N 37°28' W 014°25'611.0
2017-Aug-13 15:30N 37°28' W 014°32'611.1
2017-Aug-13 15:00N 37°27' W 014°39'711.1
2017-Aug-13 14:24N 37°27' W 014°48'510.8
2017-Aug-13 13:58N 37°26' W 014°54'510.8
2017-Aug-13 13:30N 37°26' W 014°60'510.9
2017-Aug-13 13:00N 37°25' W 015°07'2510.8
2017-Aug-13 10:39N 37°22' W 015°38'610.9
2017-Aug-13 10:08N 37°22' W 015°45'111.0
2017-Aug-13 10:00N 37°21' W 015°47'610.8
2017-Aug-13 09:29N 37°21' W 015°54'710.9
2017-Aug-13 08:48N 37°20' W 016°03'310.9
2017-Aug-13 08:30N 37°19' W 016°08'510.8
2017-Aug-13 08:00N 37°19' W 016°14'510.7
2017-Aug-13 07:30N 37°18' W 016°21'510.7
2017-Aug-13 07:00N 37°18' W 016°28'611.0
2017-Aug-13 06:30N 37°17' W 016°34'611.0
2017-Aug-13 06:00N 37°16' W 016°41'611.0
2017-Aug-13 05:30N 37°16' W 016°48'511.1
2017-Aug-13 05:00N 37°15' W 016°55'611.1
2017-Aug-13 04:30N 37°15' W 017°02'611.1
2017-Aug-13 04:00N 37°14' W 017°09'611.1
2017-Aug-13 03:27N 37°13' W 017°17'511.0
2017-Aug-13 03:00N 37°12' W 017°23'510.9
2017-Aug-13 02:30N 37°11' W 017°29'510.9
2017-Aug-13 02:00N 37°10' W 017°36'510.9
2017-Aug-13 01:30N 37°09' W 017°43'611.0
2017-Aug-13 01:00N 37°09' W 017°50'511.1
2017-Aug-13 00:30N 37°08' W 017°57'510.8
2017-Aug-13 00:00N 37°07' W 018°03'510.5
2017-Aug-12 23:30N 37°06' W 018°10'510.5
2017-Aug-12 23:00N 37°05' W 018°16'510.5
2017-Aug-12 22:30N 37°04' W 018°23'510.5
2017-Aug-12 22:00N 37°04' W 018°29'510.7
2017-Aug-12 21:30N 37°03' W 018°36'510.9
2017-Aug-12 21:00N 37°02' W 018°43'610.9
2017-Aug-12 20:30N 37°01' W 018°49'611.1
2017-Aug-12 19:59N 37°00' W 018°57'611.1
2017-Aug-12 19:24N 36°59' W 019°05'811.1
2017-Aug-12 18:39N 36°58' W 019°15'211.2
2017-Aug-12 18:30N 36°57' W 019°17'611.0
2017-Aug-12 18:00N 36°56' W 019°24'611.3
2017-Aug-12 17:30N 36°55' W 019°31'  
Track history (hours):
 
Tides and Currents Weather Stations Pressure Air Temp Water Temp Dewpoint Dewpoint Depression Visibility Wind Speed Wind Dir Waves Ship Positions

Ormond

Last reported at 2017-Aug-22 13:03 UTC. Time now 2017-Sep-22 10:03 UTC.
Position N 39°43' W 013°26'.
Warning: this ship's position is 30 days out of date.

Length 292 m; draft 9.5 m.

Type: Cargo ship. MMSI: 636017319.

Date/timePositionNaut miles runAvg speedWind from/ knotsBaromVisibWave heightAir tempDewpointWater temp
2017-Aug-22 13:03N 39°43' W 013°26'112.3
2017-Aug-22 12:59N 39°43' W 013°25'612.3
2017-Aug-22 12:30N 39°40' W 013°18'612.3
2017-Aug-22 12:00N 39°37' W 013°11'612.0
2017-Aug-22 11:30N 39°34' W 013°04'612.1
2017-Aug-22 11:00N 39°31' W 012°57'611.9
2017-Aug-22 10:30N 39°29' W 012°51'612.1
2017-Aug-22 10:00N 39°26' W 012°43'612.3
2017-Aug-22 09:30N 39°23' W 012°36'612.4
2017-Aug-22 09:00N 39°21' W 012°29'612.2
2017-Aug-22 08:30N 39°18' W 012°22'612.0
2017-Aug-22 08:00N 39°15' W 012°15'612.2
2017-Aug-22 07:30N 39°12' W 012°08'612.4
2017-Aug-22 07:00N 39°10' W 012°01'612.3
2017-Aug-22 06:30N 39°07' W 011°54'612.4
2017-Aug-22 06:00N 39°04' W 011°47'612.2
2017-Aug-22 05:30N 39°01' W 011°40'712.2
2017-Aug-22 04:58N 38°58' W 011°32'612.2
2017-Aug-22 04:30N 38°56' W 011°26'612.2
2017-Aug-22 04:00N 38°53' W 011°19'612.2
2017-Aug-22 03:30N 38°51' W 011°11'612.0
2017-Aug-22 03:00N 38°48' W 011°04'611.8
2017-Aug-22 02:30N 38°46' W 010°58'611.9
2017-Aug-22 02:00N 38°43' W 010°51'612.3
2017-Aug-22 01:30N 38°40' W 010°44'612.6
2017-Aug-22 01:00N 38°37' W 010°37'612.4
2017-Aug-22 00:30N 38°35' W 010°30'612.4
2017-Aug-22 00:00N 38°32' W 010°23'612.4
2017-Aug-21 23:30N 38°29' W 010°15'612.2
2017-Aug-21 23:00N 38°26' W 010°08'612.2
2017-Aug-21 22:30N 38°24' W 010°01'611.8
2017-Aug-21 22:00N 38°21' W 009°55'611.4
2017-Aug-21 21:30N 38°19' W 009°48'611.2
2017-Aug-21 21:00N 38°16' W 009°42'510.9
2017-Aug-21 20:31N 38°14' W 009°35'510.9
2017-Aug-21 20:00N 38°11' W 009°30'510.5
2017-Aug-21 19:30N 38°08' W 009°24'611.3
2017-Aug-21 19:00N 38°05' W 009°18'611.6
2017-Aug-21 18:30N 38°02' W 009°12'612.1
2017-Aug-21 18:00N 37°59' W 009°05'611.5
2017-Aug-21 17:30N 37°58' W 008°58'4 8.2
2017-Aug-21 17:00N 37°55' W 008°54'2 4.5
2017-Aug-21 16:30N 37°56' W 008°51'0 0.4
2017-Aug-21 15:59N 37°56' W 008°51'0 0.0
2017-Aug-21 15:26N 37°56' W 008°51'0 0.0
2017-Aug-21 14:59N 37°56' W 008°51'0 0.0
2017-Aug-21 14:29N 37°56' W 008°51'0 0.0
2017-Aug-21 13:59N 37°56' W 008°51'0 0.0
2017-Aug-21 13:29N 37°56' W 008°51'0 0.0
2017-Aug-21 12:59N 37°56' W 008°51'0 0.0
2017-Aug-21 12:29N 37°56' W 008°51'0 0.0
2017-Aug-21 11:59N 37°56' W 008°51'0 0.0
2017-Aug-21 11:29N 37°56' W 008°51'0 0.0
2017-Aug-21 10:59N 37°56' W 008°51'0 0.0
2017-Aug-21 10:29N 37°56' W 008°51'0 0.0
2017-Aug-21 09:59N 37°56' W 008°51'0 0.0
2017-Aug-21 09:29N 37°56' W 008°51'0 0.0
2017-Aug-21 08:59N 37°56' W 008°51'0 0.0
2017-Aug-21 08:29N 37°56' W 008°51'0 0.0
2017-Aug-21 07:59N 37°56' W 008°51'0 0.0
2017-Aug-21 07:29N 37°56' W 008°51'0 0.0
2017-Aug-21 06:59N 37°56' W 008°51'0 0.0
2017-Aug-21 06:26N 37°56' W 008°51'0 0.0
2017-Aug-21 05:59N 37°56' W 008°51'0 0.0
2017-Aug-21 05:29N 37°56' W 008°51'0 0.0
2017-Aug-21 04:59N 37°56' W 008°51'0 0.0
2017-Aug-21 04:29N 37°56' W 008°51'0 0.0
2017-Aug-21 03:59N 37°56' W 008°51'0 0.0
2017-Aug-21 03:28N 37°56' W 008°51'0 0.0
2017-Aug-21 02:59N 37°56' W 008°51'0 0.0
2017-Aug-21 02:29N 37°56' W 008°51'0 0.0
2017-Aug-21 01:59N 37°56' W 008°51'0 0.0
2017-Aug-21 01:29N 37°56' W 008°51'0 0.0
2017-Aug-21 00:59N 37°56' W 008°51'0 0.0
2017-Aug-21 00:29N 37°56' W 008°51'0 0.0
2017-Aug-20 23:59N 37°56' W 008°51'0 0.0
2017-Aug-20 23:29N 37°56' W 008°51'0 0.0
2017-Aug-20 22:56N 37°56' W 008°51'0 0.0
2017-Aug-20 22:29N 37°56' W 008°51'0 0.0
2017-Aug-20 21:59N 37°56' W 008°51'0 0.0
2017-Aug-20 21:29N 37°56' W 008°51'0 0.0
2017-Aug-20 20:59N 37°56' W 008°51'0 0.0
2017-Aug-20 20:29N 37°56' W 008°51'0 0.0
2017-Aug-20 19:58N 37°56' W 008°51'0 0.0
2017-Aug-20 19:29N 37°56' W 008°51'0 0.0
2017-Aug-20 18:59N 37°56' W 008°51'0 0.0
2017-Aug-20 18:26N 37°56' W 008°51'0 0.0
2017-Aug-20 17:55N 37°56' W 008°51'0 0.0
2017-Aug-20 17:28N 37°56' W 008°51'0 0.0
2017-Aug-20 16:56N 37°56' W 008°51'0 0.0
2017-Aug-20 16:28N 37°56' W 008°51'0 0.0
2017-Aug-20 15:55N 37°56' W 008°51'0 0.0
2017-Aug-20 15:28N 37°56' W 008°51'0 0.0
2017-Aug-20 14:59N 37°56' W 008°51'0 0.0
2017-Aug-20 14:29N 37°56' W 008°51'0 0.0
2017-Aug-20 13:58N 37°56' W 008°51'0 0.0
2017-Aug-20 13:28N 37°56' W 008°51'0 0.0
2017-Aug-20 12:58N 37°56' W 008°51'0 0.0
2017-Aug-20 12:29N 37°56' W 008°51'0 0.0
2017-Aug-20 11:59N 37°56' W 008°51'0 0.0
2017-Aug-20 11:28N 37°56' W 008°51'0 0.0
2017-Aug-20 10:58N 37°56' W 008°51'0 0.0
2017-Aug-20 10:28N 37°56' W 008°51'0 0.0
2017-Aug-20 09:58N 37°56' W 008°51'0 0.0
2017-Aug-20 09:29N 37°56' W 008°51'0 0.0
2017-Aug-20 08:58N 37°56' W 008°51'0 0.0
2017-Aug-20 08:29N 37°56' W 008°51'0 0.0
2017-Aug-20 07:55N 37°56' W 008°51'0 0.0
2017-Aug-20 07:29N 37°56' W 008°51'0 0.0
2017-Aug-20 06:58N 37°56' W 008°51'0 0.0
2017-Aug-20 06:25N 37°56' W 008°51'0 0.0
2017-Aug-20 05:58N 37°56' W 008°51'0 0.0
2017-Aug-20 05:28N 37°56' W 008°51'0 0.0
2017-Aug-20 04:58N 37°56' W 008°51'0 0.0
2017-Aug-20 04:28N 37°56' W 008°51'0 0.0
2017-Aug-20 03:58N 37°56' W 008°51'0 0.0
2017-Aug-20 03:28N 37°56' W 008°51'0 0.0
2017-Aug-20 02:58N 37°56' W 008°51'0 0.0
2017-Aug-20 02:28N 37°56' W 008°51'0 0.0
2017-Aug-20 01:58N 37°56' W 008°51'0 0.0
2017-Aug-20 01:28N 37°56' W 008°51'0 0.0
2017-Aug-20 00:58N 37°56' W 008°51'0 0.0
2017-Aug-20 00:28N 37°56' W 008°51'0 0.0
2017-Aug-19 23:58N 37°56' W 008°51'0 0.0
2017-Aug-19 23:28N 37°56' W 008°51'0 0.0
2017-Aug-19 22:58N 37°56' W 008°51'0 0.0
2017-Aug-19 22:28N 37°56' W 008°51'0 0.0
2017-Aug-19 21:58N 37°56' W 008°51'0 0.0
2017-Aug-19 21:28N 37°56' W 008°51'0 0.0
2017-Aug-19 20:58N 37°56' W 008°51'0 0.0
2017-Aug-19 20:28N 37°56' W 008°51'0 0.0
2017-Aug-19 19:58N 37°56' W 008°51'0 0.0
2017-Aug-19 19:28N 37°56' W 008°51'0 0.0
2017-Aug-19 18:58N 37°56' W 008°51'0 0.0
2017-Aug-19 18:28N 37°56' W 008°51'0 0.0
2017-Aug-19 17:58N 37°56' W 008°51'0 0.0
2017-Aug-19 17:28N 37°56' W 008°51'0 0.0
2017-Aug-19 16:55N 37°56' W 008°51'0 0.0
2017-Aug-19 16:28N 37°56' W 008°51'0 0.0
2017-Aug-19 15:58N 37°56' W 008°51'0 0.0
2017-Aug-19 15:28N 37°56' W 008°51'0 0.0
2017-Aug-19 14:58N 37°56' W 008°51'0 0.0
2017-Aug-19 13:58N 37°56' W 008°51'0 0.0
2017-Aug-19 13:28N 37°56' W 008°51'0 0.0
2017-Aug-19 12:58N 37°56' W 008°51'0 0.0
2017-Aug-19 12:28N 37°56' W 008°51'0 0.0
2017-Aug-19 11:58N 37°56' W 008°51'0 0.0
2017-Aug-19 11:28N 37°56' W 008°51'0 0.0
2017-Aug-19 10:58N 37°56' W 008°51'0 0.0
2017-Aug-19 10:28N 37°56' W 008°51'0 0.0
2017-Aug-19 09:58N 37°56' W 008°51'0 0.0
2017-Aug-19 09:28N 37°56' W 008°51'0 0.0
2017-Aug-19 08:58N 37°56' W 008°51'0 0.0
2017-Aug-19 08:28N 37°56' W 008°51'0 0.0
2017-Aug-19 07:58N 37°56' W 008°51'0 0.0
2017-Aug-19 07:28N 37°56' W 008°51'0 0.0
2017-Aug-19 06:58N 37°56' W 008°51'0 0.0
2017-Aug-19 06:28N 37°56' W 008°51'0 0.0
2017-Aug-19 05:58N 37°56' W 008°51'0 0.0
2017-Aug-19 05:25N 37°56' W 008°51'0 0.0
2017-Aug-19 04:58N 37°56' W 008°51'0 0.0
2017-Aug-19 04:28N 37°56' W 008°51'0 0.0
2017-Aug-19 03:58N 37°56' W 008°51'0 0.0
2017-Aug-19 03:28N 37°56' W 008°51'0 0.0
2017-Aug-19 02:58N 37°56' W 008°51'0 0.0
2017-Aug-19 02:28N 37°56' W 008°51'0 0.0
2017-Aug-19 01:58N 37°56' W 008°51'0 0.0
2017-Aug-19 01:28N 37°56' W 008°51'0 0.0
2017-Aug-19 00:58N 37°56' W 008°51'0 0.0
2017-Aug-19 00:28N 37°56' W 008°51'0 0.0
2017-Aug-18 23:58N 37°56' W 008°51'0 0.0
2017-Aug-18 23:28N 37°56' W 008°51'0 0.0
2017-Aug-18 22:58N 37°56' W 008°51'0 0.0
2017-Aug-18 22:22N 37°56' W 008°51'0 0.0
2017-Aug-18 21:58N 37°56' W 008°51'0 0.0
2017-Aug-18 21:28N 37°56' W 008°51'0 0.0
2017-Aug-18 20:58N 37°56' W 008°51'0 0.0
2017-Aug-18 20:28N 37°56' W 008°51'0 0.0
2017-Aug-18 19:58N 37°56' W 008°51'0 0.0
2017-Aug-18 19:28N 37°56' W 008°51'0 0.0
2017-Aug-18 18:58N 37°56' W 008°51'0 0.0
2017-Aug-18 18:28N 37°56' W 008°51'0 0.0
2017-Aug-18 17:58N 37°56' W 008°51'0 0.0
2017-Aug-18 17:28N 37°56' W 008°51'0 0.0
2017-Aug-18 16:58N 37°56' W 008°51'0 0.0
2017-Aug-18 16:28N 37°56' W 008°51'0 0.0
2017-Aug-18 16:00N 37°56' W 008°51'1 1.1
2017-Aug-18 15:30N 37°56' W 008°52'1 2.1
2017-Aug-18 15:01N 37°56' W 008°53'3 3.1
2017-Aug-18 14:00N 37°53' W 008°53'0 0.1
2017-Aug-18 13:28N 37°53' W 008°53'0 0.0
2017-Aug-18 12:58N 37°53' W 008°53'0 0.1
2017-Aug-18 12:28N 37°53' W 008°53'0 0.1
2017-Aug-18 11:58N 37°53' W 008°53'0 0.0
2017-Aug-18 11:28N 37°53' W 008°53'0 0.1
2017-Aug-18 10:58N 37°53' W 008°53'0 0.0
2017-Aug-18 10:28N 37°53' W 008°53'0 0.0
2017-Aug-18 09:58N 37°53' W 008°53'0 0.0
2017-Aug-18 09:28N 37°53' W 008°53'0 0.0
2017-Aug-18 08:58N 37°53' W 008°53'0 0.0
2017-Aug-18 08:28N 37°53' W 008°53'0 0.0
2017-Aug-18 07:58N 37°53' W 008°53'0 0.0
2017-Aug-18 07:28N 37°53' W 008°53'0 0.0
2017-Aug-18 06:58N 37°53' W 008°53'0 0.0
2017-Aug-18 06:28N 37°53' W 008°53'0 0.0
2017-Aug-18 05:58N 37°53' W 008°53'0 0.2
2017-Aug-18 05:28N 37°53' W 008°53'0 0.1
2017-Aug-18 04:58N 37°53' W 008°53'0 0.0
2017-Aug-18 04:28N 37°53' W 008°53'0 0.0
2017-Aug-18 03:58N 37°53' W 008°53'0 0.0
2017-Aug-18 03:25N 37°53' W 008°53'0 0.0
2017-Aug-18 02:58N 37°53' W 008°53'0 0.1
2017-Aug-18 02:28N 37°53' W 008°53'0 0.0
2017-Aug-18 01:58N 37°53' W 008°53'0 0.0
2017-Aug-18 01:28N 37°53' W 008°53'0 0.0
2017-Aug-18 00:58N 37°53' W 008°53'0 0.0
2017-Aug-18 00:28N 37°53' W 008°53'0 0.0
2017-Aug-17 23:58N 37°53' W 008°53'0 0.1
2017-Aug-17 23:28N 37°53' W 008°53'0 0.1
2017-Aug-17 22:58N 37°53' W 008°53'0 0.0
2017-Aug-17 22:28N 37°53' W 008°53'0 0.0
2017-Aug-17 21:58N 37°53' W 008°53'0 0.0
2017-Aug-17 21:28N 37°53' W 008°53'0 0.1
2017-Aug-17 20:58N 37°53' W 008°53'0 0.0
2017-Aug-17 20:28N 37°53' W 008°53'0 0.0
2017-Aug-17 19:55N 37°53' W 008°53'0 0.0
2017-Aug-17 19:28N 37°53' W 008°53'0 0.0
2017-Aug-17 18:58N 37°53' W 008°53'0 0.0
2017-Aug-17 18:28N 37°53' W 008°53'0 0.0
2017-Aug-17 17:58N 37°53' W 008°53'0 0.0
2017-Aug-17 17:28N 37°53' W 008°53'0 0.0
2017-Aug-17 16:58N 37°53' W 008°53'0 0.0
2017-Aug-17 16:28N 37°53' W 008°53'0 0.0
2017-Aug-17 15:58N 37°53' W 008°53'0 0.0
2017-Aug-17 15:28N 37°53' W 008°53'0 0.0
2017-Aug-17 14:58N 37°53' W 008°53'0 0.0
2017-Aug-17 14:28N 37°53' W 008°53'0 0.0
2017-Aug-17 13:58N 37°53' W 008°53'0 0.0
2017-Aug-17 13:28N 37°53' W 008°53'0 0.0
2017-Aug-17 12:58N 37°53' W 008°53'0 0.0
2017-Aug-17 12:28N 37°53' W 008°53'0 0.0
2017-Aug-17 11:58N 37°53' W 008°53'0 0.1
2017-Aug-17 11:28N 37°53' W 008°53'0 0.1
2017-Aug-17 10:58N 37°53' W 008°53'0 0.1
2017-Aug-17 10:28N 37°53' W 008°53'0 0.1
2017-Aug-17 09:58N 37°53' W 008°53'0 0.0
2017-Aug-17 09:28N 37°53' W 008°53'0 0.2
2017-Aug-17 08:58N 37°53' W 008°53'0 0.1
2017-Aug-17 08:28N 37°53' W 008°53'0 0.0
2017-Aug-17 07:58N 37°53' W 008°53'0 0.1
2017-Aug-17 07:28N 37°53' W 008°53'0 0.1
2017-Aug-17 06:58N 37°53' W 008°53'0 0.1
2017-Aug-17 06:28N 37°53' W 008°53'0 0.1
2017-Aug-17 05:58N 37°53' W 008°53'0 0.1
2017-Aug-17 05:28N 37°53' W 008°53'0 0.0
2017-Aug-17 04:58N 37°53' W 008°53'0 0.0
2017-Aug-17 04:28N 37°53' W 008°53'0 0.0
2017-Aug-17 03:58N 37°53' W 008°53'0 0.0
2017-Aug-17 03:28N 37°53' W 008°53'0 0.0
2017-Aug-17 02:58N 37°53' W 008°53'0 0.1
2017-Aug-17 02:28N 37°53' W 008°53'0 0.0
2017-Aug-17 01:58N 37°53' W 008°53'0 0.1
2017-Aug-17 01:28N 37°53' W 008°53'0 0.1
2017-Aug-17 00:58N 37°53' W 008°53'0 0.1
2017-Aug-17 00:28N 37°53' W 008°53'0 0.0
2017-Aug-16 23:58N 37°53' W 008°53'0 0.0
2017-Aug-16 23:28N 37°53' W 008°53'0 0.0
2017-Aug-16 22:58N 37°53' W 008°53'0 0.0
2017-Aug-16 22:28N 37°53' W 008°53'0 0.0
2017-Aug-16 21:58N 37°53' W 008°53'0 0.0
2017-Aug-16 21:28N 37°53' W 008°53'0 0.0
2017-Aug-16 20:58N 37°53' W 008°53'0 0.0
2017-Aug-16 20:28N 37°53' W 008°53'0 0.0
2017-Aug-16 19:58N 37°53' W 008°53'0 0.0
2017-Aug-16 19:25N 37°53' W 008°53'0 0.1
2017-Aug-16 18:58N 37°53' W 008°53'0 0.0
2017-Aug-16 18:28N 37°53' W 008°53'0 0.1
2017-Aug-16 17:58N 37°53' W 008°53'0 0.0
2017-Aug-16 17:28N 37°53' W 008°53'0 0.0
2017-Aug-16 16:58N 37°53' W 008°53'0 0.0
2017-Aug-16 16:28N 37°53' W 008°53'0 0.0
2017-Aug-16 15:58N 37°53' W 008°53'0 0.0
2017-Aug-16 15:28N 37°53' W 008°53'0 0.0
2017-Aug-16 14:58N 37°53' W 008°53'0 0.0
2017-Aug-16 14:28N 37°53' W 008°53'0 0.0
2017-Aug-16 13:58N 37°53' W 008°53'0 0.0
2017-Aug-16 13:28N 37°53' W 008°53'0 0.0
2017-Aug-16 12:58N 37°53' W 008°53'0 0.0
2017-Aug-16 12:28N 37°53' W 008°53'0 0.0
2017-Aug-16 11:58N 37°53' W 008°53'0 0.0
2017-Aug-16 11:28N 37°53' W 008°53'0 0.1
2017-Aug-16 10:58N 37°53' W 008°53'0 0.1
2017-Aug-16 10:28N 37°53' W 008°53'0 0.0
2017-Aug-16 09:58N 37°53' W 008°53'0 0.0
2017-Aug-16 09:28N 37°53' W 008°53'0 0.0
2017-Aug-16 08:58N 37°53' W 008°53'0 0.1
2017-Aug-16 08:25N 37°53' W 008°53'0 0.1
2017-Aug-16 07:58N 37°53' W 008°53'0 0.1
2017-Aug-16 07:28N 37°53' W 008°53'0 0.1
2017-Aug-16 06:58N 37°53' W 008°53'0 0.1
2017-Aug-16 06:28N 37°53' W 008°53'0 0.3
2017-Aug-16 05:58N 37°53' W 008°53'0 0.1
2017-Aug-16 05:28N 37°53' W 008°53'0 0.0
2017-Aug-16 04:58N 37°53' W 008°53'0 0.0
2017-Aug-16 04:28N 37°53' W 008°53'0 0.0
2017-Aug-16 03:58N 37°53' W 008°53'0 0.0
2017-Aug-16 03:28N 37°53' W 008°53'0 0.0
2017-Aug-16 02:58N 37°53' W 008°53'0 0.0
2017-Aug-16 02:28N 37°53' W 008°53'0 0.0
2017-Aug-16 01:58N 37°53' W 008°53'0 0.0
2017-Aug-16 01:28N 37°53' W 008°53'0 0.0
2017-Aug-16 00:58N 37°53' W 008°53'0 0.0
2017-Aug-16 00:28N 37°53' W 008°53'0 0.0
2017-Aug-15 23:58N 37°53' W 008°53'0 0.0
2017-Aug-15 23:28N 37°53' W 008°53'0 0.0
2017-Aug-15 22:58N 37°53' W 008°53'0 0.0
2017-Aug-15 22:28N 37°53' W 008°53'0 0.0
2017-Aug-15 21:58N 37°53' W 008°53'0 0.0
2017-Aug-15 21:28N 37°53' W 008°53'0 0.0
2017-Aug-15 20:58N 37°53' W 008°53'0 0.0
2017-Aug-15 20:28N 37°53' W 008°53'0 0.0
2017-Aug-15 19:55N 37°53' W 008°53'0 0.0
2017-Aug-15 19:28N 37°53' W 008°53'0 0.0
2017-Aug-15 18:58N 37°53' W 008°53'0 0.0
2017-Aug-15 18:28N 37°53' W 008°53'0 0.1
2017-Aug-15 17:58N 37°53' W 008°53'0 0.0
2017-Aug-15 17:28N 37°53' W 008°53'0 0.1
2017-Aug-15 16:58N 37°53' W 008°53'0 0.1
2017-Aug-15 16:28N 37°53' W 008°53'0 0.1
2017-Aug-15 15:58N 37°53' W 008°53'0 0.0
2017-Aug-15 15:28N 37°53' W 008°53'0 0.0
2017-Aug-15 14:58N 37°53' W 008°53'0 0.0
2017-Aug-15 14:22N 37°53' W 008°53'0 0.0
2017-Aug-15 13:58N 37°53' W 008°53'0 0.0
2017-Aug-15 13:28N 37°53' W 008°53'0 0.0
2017-Aug-15 12:58N 37°53' W 008°53'0 0.0
2017-Aug-15 12:28N 37°53' W 008°53'0 0.0
2017-Aug-15 11:58N 37°53' W 008°53'0 0.0
2017-Aug-15 11:28N 37°53' W 008°53'0 0.0
2017-Aug-15 10:58N 37°53' W 008°53'0 0.0
2017-Aug-15 10:28N 37°53' W 008°53'0 0.0
2017-Aug-15 09:58N 37°53' W 008°53'0 0.0
2017-Aug-15 09:28N 37°53' W 008°53'0 0.0
2017-Aug-15 08:58N 37°53' W 008°53'0 0.0
2017-Aug-15 08:28N 37°53' W 008°53'0 0.0
2017-Aug-15 07:58N 37°53' W 008°53'0 0.0
2017-Aug-15 07:28N 37°53' W 008°53'0 0.0
2017-Aug-15 06:58N 37°53' W 008°53'0 0.0
2017-Aug-15 06:25N 37°53' W 008°53'0 0.0
2017-Aug-15 05:58N 37°53' W 008°53'0 0.0
2017-Aug-15 05:28N 37°53' W 008°53'0 0.0
2017-Aug-15 04:58N 37°53' W 008°53'0 0.0
2017-Aug-15 04:28N 37°53' W 008°53'0 0.0
2017-Aug-15 03:58N 37°53' W 008°53'0 0.2
2017-Aug-15 03:28N 37°53' W 008°53'0 0.1
2017-Aug-15 02:58N 37°53' W 008°53'0 0.1
2017-Aug-15 02:28N 37°53' W 008°53'0 0.1
2017-Aug-15 01:58N 37°53' W 008°53'0 0.0
2017-Aug-15 01:28N 37°53' W 008°53'0 0.0
2017-Aug-15 00:58N 37°53' W 008°53'0 0.0
2017-Aug-15 00:28N 37°53' W 008°53'0 0.0
2017-Aug-14 23:58N 37°53' W 008°53'0 0.0
2017-Aug-14 23:28N 37°53' W 008°53'0 0.0
2017-Aug-14 22:58N 37°53' W 008°53'0 0.0
2017-Aug-14 22:28N 37°53' W 008°53'0 0.0
2017-Aug-14 21:58N 37°53' W 008°53'0 0.0
2017-Aug-14 21:28N 37°53' W 008°53'0 0.0
2017-Aug-14 20:55N 37°53' W 008°53'0 0.0
2017-Aug-14 20:28N 37°53' W 008°53'0 0.0
2017-Aug-14 19:58N 37°53' W 008°53'0 0.0
2017-Aug-14 19:28N 37°53' W 008°53'0 0.0
2017-Aug-14 18:58N 37°53' W 008°53'0 0.1
2017-Aug-14 18:28N 37°53' W 008°53'0 0.4
2017-Aug-14 18:00N 37°53' W 008°53'0 0.5
2017-Aug-14 17:28N 37°52' W 008°53'0 0.8
2017-Aug-14 17:00N 37°53' W 008°53'0 0.3
2017-Aug-14 16:30N 37°53' W 008°53'1 2.5
2017-Aug-14 16:00N 37°52' W 008°54'4 7.9
2017-Aug-14 15:30N 37°49' W 008°58'510.3
2017-Aug-14 15:00N 37°48' W 009°04'611.9
2017-Aug-14 14:30N 37°50' W 009°12'611.7
2017-Aug-14 14:00N 37°50' W 009°19'611.8
2017-Aug-14 13:30N 37°50' W 009°26'611.6
2017-Aug-14 13:00N 37°50' W 009°34'611.3
2017-Aug-14 12:30N 37°49' W 009°41'511.0
2017-Aug-14 12:00N 37°49' W 009°48'611.4
2017-Aug-14 11:30N 37°49' W 009°55'611.3
2017-Aug-14 11:00N 37°49' W 010°02'611.4
2017-Aug-14 10:30N 37°48' W 010°09'611.6
2017-Aug-14 10:00N 37°48' W 010°17'611.4
2017-Aug-14 09:30N 37°47' W 010°24'611.3
2017-Aug-14 09:00N 37°47' W 010°31'611.2
2017-Aug-14 08:30N 37°46' W 010°38'611.5
2017-Aug-14 08:00N 37°45' W 010°45'611.2
2017-Aug-14 07:30N 37°45' W 010°52'611.4
2017-Aug-14 07:00N 37°44' W 010°59'611.3
2017-Aug-14 06:30N 37°44' W 011°07'611.1
2017-Aug-14 06:00N 37°44' W 011°14'510.7
2017-Aug-14 05:30N 37°43' W 011°20'510.6
2017-Aug-14 05:00N 37°43' W 011°27'510.8
2017-Aug-14 04:30N 37°43' W 011°34'510.8
2017-Aug-14 04:00N 37°42' W 011°41'611.2
2017-Aug-14 03:30N 37°42' W 011°48'611.2
2017-Aug-14 03:00N 37°41' W 011°55'611.0
2017-Aug-14 02:30N 37°41' W 012°02'611.0
2017-Aug-14 02:00N 37°40' W 012°09'510.9
2017-Aug-14 01:30N 37°40' W 012°15'510.8
2017-Aug-14 01:00N 37°39' W 012°22'510.8
2017-Aug-14 00:30N 37°39' W 012°29'611.0
2017-Aug-14 00:00N 37°38' W 012°36'611.2
2017-Aug-13 23:30N 37°37' W 012°43'611.0
2017-Aug-13 23:00N 37°37' W 012°50'611.1
2017-Aug-13 22:30N 37°36' W 012°57'611.1
2017-Aug-13 22:00N 37°35' W 013°04'510.9
2017-Aug-13 21:30N 37°35' W 013°10'510.9
2017-Aug-13 21:00N 37°34' W 013°17'511.0
2017-Aug-13 20:30N 37°33' W 013°24'511.0
2017-Aug-13 20:00N 37°33' W 013°31'611.0
2017-Aug-13 19:30N 37°33' W 013°38'510.8
2017-Aug-13 19:00N 37°32' W 013°45'510.8
2017-Aug-13 18:30N 37°32' W 013°52'510.8
2017-Aug-13 18:00N 37°31' W 013°58'510.8
2017-Aug-13 17:30N 37°31' W 014°05'610.9
2017-Aug-13 16:56N 37°30' W 014°13'710.6
2017-Aug-13 16:18N 37°29' W 014°21'310.9
2017-Aug-13 16:00N 37°28' W 014°25'611.0
2017-Aug-13 15:30N 37°28' W 014°32'611.1
2017-Aug-13 15:00N 37°27' W 014°39'711.1
2017-Aug-13 14:24N 37°27' W 014°48'510.8
2017-Aug-13 13:58N 37°26' W 014°54'510.8
2017-Aug-13 13:30N 37°26' W 014°60'510.9
2017-Aug-13 13:00N 37°25' W 015°07'2510.8
2017-Aug-13 10:39N 37°22' W 015°38'610.9
2017-Aug-13 10:08N 37°22' W 015°45'111.0
2017-Aug-13 10:00N 37°21' W 015°47'610.8
2017-Aug-13 09:29N 37°21' W 015°54'710.9
2017-Aug-13 08:48N 37°20' W 016°03'310.9
2017-Aug-13 08:30N 37°19' W 016°08'510.8
2017-Aug-13 08:00N 37°19' W 016°14'510.7
2017-Aug-13 07:30N 37°18' W 016°21'510.7
2017-Aug-13 07:00N 37°18' W 016°28'611.0
2017-Aug-13 06:30N 37°17' W 016°34'611.0
2017-Aug-13 06:00N 37°16' W 016°41'611.0
2017-Aug-13 05:30N 37°16' W 016°48'511.1
2017-Aug-13 05:00N 37°15' W 016°55'611.1
2017-Aug-13 04:30N 37°15' W 017°02'611.1
2017-Aug-13 04:00N 37°14' W 017°09'611.1
2017-Aug-13 03:27N 37°13' W 017°17'511.0
2017-Aug-13 03:00N 37°12' W 017°23'510.9
2017-Aug-13 02:30N 37°11' W 017°29'510.9
2017-Aug-13 02:00N 37°10' W 017°36'510.9
2017-Aug-13 01:30N 37°09' W 017°43'611.0
2017-Aug-13 01:00N 37°09' W 017°50'511.1
2017-Aug-13 00:30N 37°08' W 017°57'510.8
2017-Aug-13 00:00N 37°07' W 018°03'510.5
2017-Aug-12 23:30N 37°06' W 018°10'510.5
2017-Aug-12 23:00N 37°05' W 018°16'510.5
2017-Aug-12 22:30N 37°04' W 018°23'510.5
2017-Aug-12 22:00N 37°04' W 018°29'510.7
2017-Aug-12 21:30N 37°03' W 018°36'510.9
2017-Aug-12 21:00N 37°02' W 018°43'610.9
2017-Aug-12 20:30N 37°01' W 018°49'611.1
2017-Aug-12 19:59N 37°00' W 018°57'611.1
2017-Aug-12 19:24N 36°59' W 019°05'811.1
2017-Aug-12 18:39N 36°58' W 019°15'211.2
2017-Aug-12 18:30N 36°57' W 019°17'611.0
2017-Aug-12 18:00N 36°56' W 019°24'611.3
2017-Aug-12 17:30N 36°55' W 019°31'  

Dump ship's entire track history